Terminal Aerodrome Forecast
Issued by NWS

Home | Current Version | Previous Version | Graphics & Text | Print | Product List | Glossary On
Versions: 1 2 3 4 5 6 7 8 9 10 11 12 13 14 15 16 17
000
FTUS42 KMHX 302321
TAFPGV
TAF
KPGV 302321Z 3100/3124 17005KT P6SM SKC
     FM310500 00000KT 5SM BR SCT008 BKN020
     FM311300 22005KT P6SM SCT035
      AMD LTD TO CLD VIS AND WIND=

USA.gov is the U.S. government's official web portal to all federal, state and local government web resources and services.